createdAt,value
2022-08-03T00:01:48.480Z,1.83
2022-08-03T00:04:15.232Z,1.92
2022-08-03T00:06:41.767Z,2.13
2022-08-03T00:09:08.295Z,1.80
2022-08-03T00:11:35.474Z,2.15
2022-08-03T00:14:02.459Z,1.90
2022-08-03T00:16:29.204Z,2.40
2022-08-03T00:18:55.676Z,1.85
2022-08-03T00:21:22.209Z,2.17
2022-08-03T00:23:51.570Z,2.08
2022-08-03T00:26:22.569Z,1.95
2022-08-03T00:28:49.927Z,2.15
2022-08-03T00:31:16.519Z,2.00
2022-08-03T00:33:57.943Z,1.85
2022-08-03T00:38:52.725Z,2.00
2022-08-03T00:41:19.181Z,1.92
2022-08-03T00:43:47.348Z,2.08
2022-08-03T00:46:19.008Z,1.90
2022-08-03T00:48:51.766Z,2.10
2022-08-03T00:51:21.318Z,2.13
2022-08-03T00:53:48.137Z,2.05
2022-08-03T00:56:16.021Z,2.20
2022-08-03T00:58:45.377Z,2.40
2022-08-03T01:01:12.462Z,2.40
2022-08-03T01:03:39.787Z,2.40
2022-08-03T01:06:23.076Z,2.17
2022-08-03T01:09:17.158Z,1.95
2022-08-03T01:12:01.016Z,2.40
2022-08-03T01:14:37.472Z,2.30
2022-08-03T01:17:19.306Z,2.10
2022-08-03T01:20:06.738Z,2.38
2022-08-03T01:23:08.815Z,1.80
2022-08-03T01:25:56.572Z,2.28
2022-08-03T01:28:45.180Z,2.28
2022-08-03T01:31:15.864Z,2.30
2022-08-03T01:33:46.843Z,2.30
2022-08-03T01:36:16.085Z,2.20
2022-08-03T01:38:48.651Z,2.22
2022-08-03T01:41:20.071Z,2.10
2022-08-03T01:44:26.486Z,2.15
2022-08-03T01:46:38.383Z,2.25
2022-08-03T01:49:09.366Z,2.15
2022-08-03T01:51:58.624Z,2.10
2022-08-03T01:54:26.703Z,2.42
2022-08-03T01:56:56.721Z,2.50
2022-08-03T01:59:25.757Z,2.38
2022-08-03T02:02:15.472Z,2.40
2022-08-03T02:04:42.391Z,2.35
2022-08-03T02:07:10.257Z,2.38
2022-08-03T02:09:41.616Z,2.50
2022-08-03T02:25:53.891Z,2.50
2022-08-03T02:28:22.650Z,2.53
2022-08-03T02:30:53.920Z,2.42
2022-08-03T02:33:38.821Z,2.40
2022-08-03T02:36:07.856Z,2.60
2022-08-03T02:38:38.980Z,2.65
2022-08-03T02:41:11.412Z,2.83
2022-08-03T02:44:05.487Z,2.58
2022-08-03T02:46:34.304Z,2.92
2022-08-03T02:49:34.918Z,2.65
2022-08-03T02:51:52.365Z,3.13
2022-08-03T02:54:21.844Z,2.53
2022-08-03T02:56:49.463Z,2.60
2022-08-03T02:59:18.649Z,2.50
2022-08-03T03:01:46.010Z,2.55
2022-08-03T03:04:13.913Z,2.33
2022-08-03T03:06:41.310Z,2.80
2022-08-03T03:09:10.024Z,2.67
2022-08-03T03:11:38.936Z,2.80
2022-08-03T03:14:06.189Z,2.55
2022-08-03T03:16:36.283Z,2.78
2022-08-03T03:19:03.114Z,2.78
2022-08-03T03:21:31.051Z,3.03
2022-08-03T03:23:58.723Z,2.78
2022-08-03T03:26:25.606Z,2.72
2022-08-03T03:28:52.428Z,2.92
2022-08-03T03:31:18.925Z,2.92
2022-08-03T03:36:12.016Z,2.70
2022-08-03T03:38:38.623Z,2.90
2022-08-03T03:41:05.616Z,2.80
2022-08-03T03:43:32.215Z,2.65
2022-08-03T03:45:58.778Z,2.80
2022-08-03T03:48:26.296Z,2.90
2022-08-03T03:50:53.336Z,2.80
2022-08-03T03:53:20.336Z,3.20
2022-08-03T03:55:57.735Z,2.95
2022-08-03T03:58:29.018Z,3.08
2022-08-03T04:00:55.587Z,3.20
2022-08-03T04:03:22.243Z,3.00
2022-08-03T04:06:07.349Z,2.92
2022-08-03T04:08:52.586Z,3.17
2022-08-03T04:11:29.242Z,2.95
2022-08-03T04:14:19.223Z,3.33
2022-08-03T04:19:30.687Z,2.72
2022-08-03T04:22:02.383Z,3.47
2022-08-03T04:24:37.684Z,3.25
2022-08-03T04:27:09.053Z,3.42
2022-08-03T04:29:48.042Z,3.20
2022-08-03T04:32:16.957Z,3.30
2022-08-03T04:34:44.168Z,3.20
2022-08-03T04:37:24.104Z,3.28
2022-08-03T04:39:53.509Z,3.20
2022-08-03T04:42:25.715Z,3.38
2022-08-03T04:44:56.552Z,3.28
2022-08-03T04:47:27.546Z,3.50
2022-08-03T04:49:54.756Z,3.10
2022-08-03T04:52:21.350Z,3.33
2022-08-03T04:54:50.687Z,3.67
2022-08-03T04:57:22.527Z,3.58
2022-08-03T05:00:01.944Z,3.50
2022-08-03T05:02:29.080Z,3.65
2022-08-03T05:04:55.492Z,2.92
2022-08-03T05:09:57.672Z,3.22
2022-08-03T05:12:32.896Z,3.22
2022-08-03T05:15:00.763Z,3.30
2022-08-03T05:17:28.419Z,2.90
2022-08-03T05:19:55.050Z,2.88
2022-08-03T05:22:22.089Z,3.00
2022-08-03T05:24:48.835Z,3.22
2022-08-03T05:27:22.121Z,3.30
2022-08-03T05:29:50.367Z,3.40
2022-08-03T05:32:18.000Z,3.58
2022-08-03T05:34:44.796Z,3.30
2022-08-03T05:37:11.460Z,3.58
2022-08-03T05:39:38.185Z,3.28
2022-08-03T05:42:04.638Z,3.28
2022-08-03T05:44:31.684Z,3.50
2022-08-03T05:46:59.169Z,3.20
2022-08-03T05:49:25.647Z,3.65
2022-08-03T05:52:00.401Z,3.30
2022-08-03T05:54:55.946Z,3.53
2022-08-03T05:57:23.499Z,3.17
2022-08-03T05:59:53.934Z,3.00
2022-08-03T06:02:26.555Z,3.10
2022-08-03T06:04:53.095Z,3.28
2022-08-03T06:07:19.588Z,3.00
2022-08-03T06:10:36.328Z,3.25
2022-08-03T06:12:35.971Z,3.00
2022-08-03T06:15:04.012Z,3.28
2022-08-03T06:17:30.550Z,3.03
2022-08-03T06:20:05.590Z,3.13
2022-08-03T06:22:32.053Z,2.85
2022-08-03T06:24:58.711Z,2.85
2022-08-03T06:27:37.083Z,2.38
2022-08-03T06:30:05.227Z,2.72
2022-08-03T06:32:31.685Z,3.00
2022-08-03T06:34:58.128Z,2.75
2022-08-03T06:37:24.904Z,2.92
2022-08-03T06:39:51.359Z,2.63
2022-08-03T06:42:18.160Z,2.70
2022-08-03T06:44:47.150Z,2.55
2022-08-03T06:47:13.628Z,2.33
2022-08-03T06:49:41.396Z,2.72
2022-08-03T06:52:07.890Z,2.78
2022-08-03T06:54:34.905Z,2.70
2022-08-03T06:57:01.442Z,2.78
2022-08-03T07:00:06.415Z,2.38
2022-08-03T07:02:19.082Z,2.20
2022-08-03T07:04:47.373Z,2.20
2022-08-03T07:07:14.034Z,2.35
2022-08-03T07:09:40.520Z,2.20
2022-08-03T07:12:08.493Z,2.35
2022-08-03T07:14:35.009Z,2.30
2022-08-03T07:17:01.465Z,2.25
2022-08-03T07:19:31.205Z,2.20
2022-08-03T07:22:04.386Z,2.30
2022-08-03T07:24:31.034Z,2.28
2022-08-03T07:26:57.733Z,2.25
2022-08-03T07:29:24.166Z,2.25
2022-08-03T07:31:50.604Z,2.50
2022-08-03T07:34:17.065Z,2.40
2022-08-03T07:36:43.507Z,2.20
2022-08-03T07:39:17.523Z,2.30
2022-08-03T07:41:45.108Z,2.22
2022-08-03T07:44:11.598Z,2.22
2022-08-03T07:46:38.064Z,2.60
2022-08-03T07:49:05.198Z,2.50
2022-08-03T07:51:31.785Z,2.47
2022-08-03T07:53:58.322Z,2.47
2022-08-03T07:56:24.984Z,2.53
2022-08-03T07:58:52.240Z,2.67
2022-08-03T08:01:19.542Z,2.47
2022-08-03T08:03:52.770Z,2.60
2022-08-03T08:06:20.825Z,2.47
2022-08-03T08:08:47.598Z,2.05
2022-08-03T08:11:14.216Z,2.05
2022-08-03T08:13:40.712Z,2.42
2022-08-03T08:16:07.264Z,2.70
2022-08-03T08:18:34.410Z,2.20
2022-08-03T08:21:03.144Z,2.10
2022-08-03T08:23:41.984Z,2.50
2022-08-03T08:26:10.428Z,2.20
2022-08-03T08:28:36.986Z,2.30
2022-08-03T08:31:03.544Z,2.30
2022-08-03T08:33:47.856Z,2.30
2022-08-03T08:36:17.025Z,2.20
2022-08-03T08:38:44.940Z,2.42
2022-08-03T08:41:13.253Z,2.38
2022-08-03T08:43:40.116Z,2.72
2022-08-03T08:46:08.452Z,2.90
2022-08-03T08:48:40.358Z,2.67
2022-08-03T08:51:08.396Z,2.95
2022-08-03T08:53:38.287Z,2.80
2022-08-03T08:56:05.495Z,2.72
2022-08-03T08:58:38.727Z,2.38
2022-08-03T09:01:05.896Z,2.30
2022-08-03T09:03:35.333Z,2.28
2022-08-03T09:06:02.548Z,2.50
2022-08-03T09:08:30.433Z,2.13
2022-08-03T09:10:57.048Z,2.15
2022-08-03T09:13:23.579Z,2.20
2022-08-03T09:16:09.813Z,2.25
2022-08-03T09:18:36.397Z,2.33
2022-08-03T09:21:31.715Z,2.03
2022-08-03T09:24:02.715Z,2.13
2022-08-03T09:26:31.406Z,2.10
2022-08-03T09:29:08.186Z,2.10
2022-08-03T09:31:46.699Z,2.10
2022-08-03T09:34:15.539Z,2.05
2022-08-03T09:36:43.771Z,1.92
2022-08-03T09:39:15.273Z,2.40
2022-08-03T09:41:44.303Z,1.98
2022-08-03T09:44:16.229Z,2.08
2022-08-03T09:46:55.279Z,2.17
2022-08-03T09:49:22.624Z,1.90
2022-08-03T09:52:31.467Z,2.25
2022-08-03T09:54:35.697Z,2.05
2022-08-03T09:57:02.292Z,2.10
2022-08-03T09:59:31.633Z,2.65
2022-08-03T10:02:02.272Z,2.20
2022-08-03T10:04:28.841Z,1.90
2022-08-03T10:07:10.102Z,2.10
2022-08-03T10:09:37.558Z,2.10
2022-08-03T10:12:11.775Z,2.35
2022-08-03T10:14:40.223Z,2.10
2022-08-03T10:17:06.734Z,2.10
2022-08-03T10:19:33.905Z,2.30
2022-08-03T10:22:15.144Z,2.20
2022-08-03T10:24:59.177Z,2.58
2022-08-03T10:27:31.464Z,2.30
2022-08-03T10:30:02.968Z,2.30
2022-08-03T10:32:42.329Z,2.45
2022-08-03T10:35:20.205Z,2.40
2022-08-03T10:38:12.691Z,2.35
2022-08-03T10:40:48.617Z,2.55
2022-08-03T10:43:28.478Z,2.25
2022-08-03T10:45:56.218Z,2.30
2022-08-03T10:48:23.507Z,2.38
2022-08-03T10:50:50.761Z,2.55
2022-08-03T10:53:34.650Z,2.17
2022-08-03T10:56:27.431Z,2.38
2022-08-03T10:59:06.622Z,2.10
2022-08-03T11:02:00.241Z,2.08
2022-08-03T11:04:29.555Z,2.28
2022-08-03T11:07:19.821Z,2.20
2022-08-03T11:09:49.347Z,2.08
2022-08-03T11:12:30.597Z,2.20
2022-08-03T11:15:05.358Z,2.38
2022-08-03T11:17:33.853Z,2.20
2022-08-03T11:20:13.827Z,2.03
2022-08-03T11:22:53.919Z,2.30
2022-08-03T11:25:53.239Z,2.50
2022-08-03T11:28:29.339Z,2.83
2022-08-03T11:30:57.275Z,2.13
2022-08-03T11:33:31.575Z,2.17
2022-08-03T11:36:00.421Z,2.35
2022-08-03T11:38:26.908Z,2.22
2022-08-03T11:40:54.337Z,2.13
2022-08-03T11:43:31.212Z,2.20
2022-08-03T11:46:28.476Z,2.30
2022-08-03T11:49:09.456Z,2.50
2022-08-03T11:51:38.665Z,2.10
2022-08-03T11:54:06.441Z,2.53
2022-08-03T11:56:50.455Z,2.38
2022-08-03T11:59:22.021Z,2.30
2022-08-03T12:01:49.384Z,2.10
2022-08-03T12:04:16.249Z,2.20
2022-08-03T12:06:58.259Z,2.35
2022-08-03T12:09:24.782Z,2.33
2022-08-03T12:11:59.632Z,2.17
2022-08-03T12:14:50.730Z,2.38
2022-08-03T12:17:14.709Z,2.10
2022-08-03T12:19:45.184Z,2.40
2022-08-03T12:22:11.769Z,2.33
2022-08-03T12:24:42.510Z,2.20
2022-08-03T12:27:09.316Z,2.17
2022-08-03T12:29:36.176Z,2.20
2022-08-03T12:32:02.963Z,2.60
2022-08-03T12:34:49.131Z,2.17
2022-08-03T12:37:23.522Z,2.38
2022-08-03T12:40:00.667Z,2.28
2022-08-03T12:42:37.390Z,2.00
2022-08-03T12:45:24.668Z,2.15
2022-08-03T12:47:56.334Z,2.10
2022-08-03T12:50:34.601Z,2.20
2022-08-03T12:53:05.191Z,2.20
2022-08-03T12:55:57.630Z,2.47
2022-08-03T12:58:35.817Z,2.40
2022-08-03T13:01:10.130Z,2.28
2022-08-03T13:03:42.956Z,2.40
2022-08-03T13:06:14.683Z,2.00
2022-08-03T13:08:42.028Z,2.35
2022-08-03T13:11:19.138Z,2.30
2022-08-03T13:13:46.077Z,2.20
2022-08-03T13:16:15.848Z,2.00
2022-08-03T13:18:47.070Z,2.40
2022-08-03T13:21:16.203Z,2.40
2022-08-03T13:23:43.787Z,2.20
2022-08-03T13:26:11.092Z,2.45
2022-08-03T13:28:38.712Z,2.17
2022-08-03T13:31:06.111Z,2.40
2022-08-03T13:33:33.791Z,2.25
2022-08-03T13:36:00.213Z,2.40
2022-08-03T13:38:27.069Z,2.42
2022-08-03T13:40:54.254Z,2.20
2022-08-03T13:43:22.032Z,2.42
2022-08-03T13:45:52.337Z,2.45
2022-08-03T13:48:36.899Z,2.67
2022-08-03T13:51:11.979Z,2.10
2022-08-03T13:53:49.791Z,2.20
2022-08-03T13:56:16.219Z,2.20
2022-08-03T13:58:42.699Z,2.28
2022-08-03T14:01:09.496Z,2.72
2022-08-03T14:03:36.036Z,2.38
2022-08-03T14:06:02.529Z,2.35
2022-08-03T14:21:09.100Z,2.10
2022-08-03T14:23:37.795Z,2.40
2022-08-03T14:26:06.515Z,2.20
2022-08-03T14:28:33.348Z,1.70
2022-08-03T14:30:59.922Z,1.90
2022-08-03T14:33:28.240Z,2.00
2022-08-03T14:35:55.412Z,2.03
2022-08-03T14:38:22.600Z,2.17
2022-08-03T14:40:50.272Z,2.10
2022-08-03T14:43:22.915Z,2.10
2022-08-03T14:45:52.361Z,2.03
2022-08-03T14:50:28.837Z,1.60
2022-08-03T14:51:10.091Z,1.92
2022-08-03T14:53:36.576Z,1.95
2022-08-03T14:56:09.423Z,1.95
2022-08-03T14:58:36.838Z,2.03
2022-08-03T15:01:03.843Z,1.98
2022-08-03T15:03:50.333Z,1.88
2022-08-03T15:06:17.098Z,1.60
2022-08-03T15:08:51.431Z,1.40
2022-08-03T15:16:26.618Z,1.35
2022-08-03T15:18:56.588Z,1.30
2022-08-03T15:21:46.826Z,1.20
2022-08-03T15:24:09.687Z,1.13
2022-08-03T15:26:40.980Z,1.10
2022-08-03T15:29:08.293Z,1.27
2022-08-03T15:31:35.085Z,1.10
2022-08-03T15:34:01.769Z,0.80
2022-08-03T15:36:28.220Z,1.00
2022-08-03T15:38:54.710Z,1.08
2022-08-03T15:41:21.205Z,1.10
2022-08-03T15:43:48.184Z,1.00
2022-08-03T15:46:30.402Z,1.08
2022-08-03T15:48:56.939Z,1.30
2022-08-03T15:51:23.420Z,1.10
2022-08-03T15:53:49.869Z,1.20
2022-08-03T15:56:18.773Z,1.20
2022-08-03T15:59:11.352Z,1.20
2022-08-03T16:01:32.748Z,1.20
2022-08-03T16:03:59.241Z,1.10
2022-08-03T16:06:34.625Z,1.40
2022-08-03T16:09:04.618Z,1.40
2022-08-03T16:11:31.251Z,1.40
2022-08-03T16:14:12.448Z,1.30
2022-08-03T16:16:44.580Z,1.60
2022-08-03T16:19:13.199Z,1.77
2022-08-03T16:21:48.259Z,1.52
2022-08-03T16:24:17.554Z,1.70
2022-08-03T16:26:46.577Z,1.80
2022-08-03T16:29:23.639Z,1.40
2022-08-03T16:31:50.853Z,1.40
2022-08-03T16:34:18.111Z,1.45
2022-08-03T16:36:45.603Z,1.60
2022-08-03T16:39:12.107Z,1.42
2022-08-03T16:41:53.779Z,1.70
2022-08-03T16:44:25.830Z,1.60
2022-08-03T16:46:53.525Z,1.70
2022-08-03T16:49:53.191Z,1.73
2022-08-03T16:52:07.122Z,1.75
2022-08-03T16:54:33.816Z,1.83
2022-08-03T16:57:01.413Z,1.95
2022-08-03T16:59:36.293Z,1.75
2022-08-03T17:02:09.964Z,1.80
2022-08-03T17:04:40.333Z,1.88
2022-08-03T17:07:20.462Z,2.00
2022-08-03T17:09:48.995Z,1.60
2022-08-03T17:12:16.340Z,1.90
2022-08-03T17:14:44.715Z,1.80
2022-08-03T17:17:25.269Z,2.00
2022-08-03T17:19:54.240Z,2.08
2022-08-03T17:22:33.324Z,2.05
2022-08-03T17:25:07.719Z,2.22
2022-08-03T17:28:48.177Z,2.03
2022-08-03T17:30:25.182Z,2.03
2022-08-03T17:32:57.169Z,2.00
2022-08-03T17:35:36.985Z,1.80
2022-08-03T17:38:10.314Z,2.25
2022-08-03T17:40:39.268Z,2.10
2022-08-03T17:44:13.884Z,2.10
2022-08-03T17:46:10.600Z,1.90
2022-08-03T17:48:38.116Z,1.92
2022-08-03T17:51:17.239Z,2.00
2022-08-03T17:53:53.021Z,2.13
2022-08-03T17:56:44.353Z,2.03
2022-08-03T17:59:52.816Z,1.90
2022-08-03T18:02:54.730Z,2.10
2022-08-03T18:06:11.821Z,2.40
2022-08-03T18:08:18.091Z,2.10
2022-08-03T18:10:56.521Z,2.25
2022-08-03T18:13:39.500Z,2.30
2022-08-03T18:16:07.856Z,2.05
2022-08-03T18:18:43.244Z,2.20
2022-08-03T18:21:17.091Z,2.10
2022-08-03T18:23:45.707Z,2.10
2022-08-03T18:26:16.936Z,2.10
2022-08-03T18:28:44.485Z,2.47
2022-08-03T18:31:12.702Z,2.20
2022-08-03T18:34:19.597Z,2.10
2022-08-03T18:36:48.081Z,2.28
2022-08-03T18:39:14.975Z,2.17
2022-08-03T18:41:46.505Z,2.28
2022-08-03T18:44:52.538Z,2.45
2022-08-03T18:47:07.394Z,2.58
2022-08-03T18:50:04.652Z,2.25
2022-08-03T18:53:16.629Z,2.25
2022-08-03T18:56:02.119Z,2.22
2022-08-03T18:58:34.730Z,2.55
2022-08-03T19:01:57.539Z,2.22
2022-08-03T19:04:09.741Z,2.65
2022-08-03T19:06:42.512Z,2.45
2022-08-03T19:09:33.254Z,2.33
2022-08-03T19:12:13.337Z,2.13
2022-08-03T19:15:10.630Z,2.30
2022-08-03T19:17:50.159Z,2.53
2022-08-03T19:20:34.887Z,2.50
2022-08-03T19:23:01.795Z,2.22
2022-08-03T19:25:34.833Z,2.40
2022-08-03T19:28:06.312Z,2.30
2022-08-03T19:30:53.207Z,2.30
2022-08-03T19:33:20.593Z,2.30
2022-08-03T19:35:55.154Z,2.40
2022-08-03T19:38:29.093Z,2.58
2022-08-03T19:40:58.359Z,2.60
2022-08-03T19:43:52.993Z,2.60
2022-08-03T19:46:22.581Z,2.42
2022-08-03T19:49:10.356Z,2.47
2022-08-03T19:52:00.723Z,2.50
2022-08-03T19:57:00.303Z,2.22
2022-08-03T19:59:29.454Z,2.50
2022-08-03T20:01:56.559Z,2.80
2022-08-03T20:04:23.189Z,2.50
2022-08-03T20:06:52.181Z,2.25
2022-08-03T20:09:20.373Z,2.40
2022-08-03T20:11:47.685Z,2.35
2022-08-03T20:14:20.688Z,2.35
2022-08-03T20:16:54.244Z,2.13
2022-08-03T20:19:21.407Z,2.45
2022-08-03T20:21:49.899Z,2.10
2022-08-03T20:24:24.188Z,2.45
2022-08-03T20:26:54.153Z,2.30
2022-08-03T20:30:05.482Z,2.30
2022-08-03T20:32:28.418Z,2.40
2022-08-03T20:34:55.521Z,2.60
2022-08-03T20:37:22.037Z,2.47
2022-08-03T20:39:49.556Z,2.35
2022-08-03T20:42:21.240Z,2.42
2022-08-03T20:45:04.769Z,2.30
2022-08-03T20:47:36.958Z,2.40
2022-08-03T20:50:16.991Z,2.53
2022-08-03T20:52:49.512Z,2.50
2022-08-03T20:55:20.317Z,2.53
2022-08-03T20:58:06.666Z,2.30
2022-08-03T21:00:33.099Z,2.70
2022-08-03T21:02:59.534Z,2.53
2022-08-03T21:05:47.924Z,2.22
2022-08-03T21:08:15.866Z,2.30
2022-08-03T21:10:42.790Z,2.40
2022-08-03T21:16:12.959Z,2.47
2022-08-03T21:18:53.092Z,2.35
2022-08-03T21:21:22.820Z,2.50
2022-08-03T21:23:54.705Z,2.50
2022-08-03T21:26:24.189Z,2.35
2022-08-03T21:28:53.011Z,2.50
2022-08-03T21:31:24.908Z,2.25
2022-08-03T21:33:55.003Z,2.10
2022-08-03T21:36:21.459Z,2.55
2022-08-03T21:38:56.190Z,2.25
2022-08-03T21:41:27.789Z,2.22
2022-08-03T21:43:54.278Z,2.42
2022-08-03T21:46:22.110Z,2.45
2022-08-03T21:48:54.570Z,2.63
2022-08-03T21:51:24.612Z,2.45
2022-08-03T21:54:03.701Z,2.70
2022-08-03T21:56:47.152Z,2.53
2022-08-03T21:59:19.585Z,2.65
2022-08-03T22:01:49.074Z,2.42
2022-08-03T22:04:54.968Z,2.33
2022-08-03T22:07:07.946Z,2.78
2022-08-03T22:09:35.377Z,2.28
2022-08-03T22:12:01.854Z,2.30
2022-08-03T22:14:29.698Z,2.55
2022-08-03T22:16:56.574Z,2.40
2022-08-03T22:19:23.129Z,2.40
2022-08-03T22:21:49.897Z,2.38
2022-08-03T22:24:20.076Z,2.38
2022-08-03T22:27:09.809Z,2.20
2022-08-03T22:29:39.020Z,2.60
2022-08-03T22:32:06.668Z,2.40
2022-08-03T22:34:33.447Z,2.50
2022-08-03T22:37:03.152Z,2.25
2022-08-03T22:39:30.097Z,2.25
2022-08-03T22:41:58.880Z,2.40
2022-08-03T22:44:28.630Z,3.17
2022-08-03T22:46:56.078Z,2.30
2022-08-03T22:49:22.850Z,2.53
2022-08-03T22:51:51.565Z,2.70
2022-08-03T22:54:18.161Z,2.30
2022-08-03T22:56:46.627Z,2.22
2022-08-03T22:59:39.990Z,2.50
2022-08-03T23:02:19.967Z,2.30
2022-08-03T23:04:52.907Z,2.53
2022-08-03T23:07:27.251Z,2.30
2022-08-03T23:09:56.011Z,2.40
2022-08-03T23:12:23.608Z,2.47
2022-08-03T23:14:56.375Z,2.60
2022-08-03T23:17:24.056Z,2.38
2022-08-03T23:19:52.609Z,2.40
2022-08-03T23:22:29.904Z,2.20
2022-08-03T23:27:26.404Z,2.40
2022-08-03T23:29:53.852Z,2.28
2022-08-03T23:32:20.992Z,2.65
2022-08-03T23:35:07.254Z,2.28
2022-08-03T23:37:34.855Z,2.70
2022-08-03T23:40:24.555Z,2.40
2022-08-03T23:42:51.787Z,2.70
2022-08-03T23:45:19.632Z,2.60
2022-08-03T23:47:47.668Z,2.63
2022-08-03T23:50:14.816Z,2.53
2022-08-03T23:53:11.845Z,2.45
2022-08-03T23:55:38.259Z,2.67
2022-08-03T23:58:27.807Z,2.45
